Huntley, Wyoming
Current Conditions -  °F | °C
As of 4:53 AM on Thursday 18 Dec 2014 (Local Time) from KTOR Reporting Station
Moderate Fog Moderate Fog  
Wind Chill:   Ceiling: 200
Heat Index:   Visibility: 0.5mi
Dew Point:   Wind: 0mph
Humidity: 87%   Direction: NA
Pressure: 30"   Gusts: NA
Location:  41.93°N, 104.15°W
Report Text: KTOR 181153Z AUTO 00000KT 1/2SM FZFG VV002 M13/M15 A3000 RMK AO2 SLP221 I1000 I6001 T11331150 11100 21133 55000
Loading
Personal Weather Stations






























Interactive Weather Map New forecast layout! Learn more

10-Day Weather Forecast

Advertisements
Track Severe Weather on mobile